Time;durP1;ratioP1;P1;durP2;ratioP2;P2;SDS_P1;SDS_P2;PMS_P1;PMS_P2;Temp;Humidity;BMP_temperature;BMP_pressure;BME280_temperature;BME280_humidity;BME280_pressure;Samples;Min_cycle;Max_cycle;Signal;HPM_P1;HPM_P2
2021/09/17 00:01:53;;;;;;;18.23;13.80;;;;;;;15.53;98.18;95731.53;6276930;22;20003;-93
2021/09/17 00:04:19;;;;;;;15.93;12.10;;;;;;;15.59;98.08;95731.50;6277208;22;20010;-94
2021/09/17 00:06:44;;;;;;;14.70;12.15;;;;;;;15.70;97.33;95728.75;6277593;22;20003;-93
2021/09/17 00:09:10;;;;;;;12.65;11.23;;;;;;;15.83;96.66;95734.41;6277182;22;20023;-94
2021/09/17 00:11:36;;;;;;;14.70;10.98;;;;;;;15.77;96.56;95719.28;6277122;22;20004;-92
2021/09/17 00:14:02;;;;;;;12.75;11.20;;;;;;;15.80;96.15;95718.97;6277210;22;20038;-94
2021/09/17 00:16:27;;;;;;;13.75;11.75;;;;;;;15.79;96.03;95709.28;6277350;22;20004;-94
2021/09/17 00:18:53;;;;;;;14.45;11.88;;;;;;;15.81;96.79;95714.97;6277809;22;20010;-95
2021/09/17 00:21:19;;;;;;;15.82;12.93;;;;;;;15.76;96.96;95706.81;6276892;22;20041;-93
2021/09/17 00:23:44;;;;;;;14.32;12.20;;;;;;;15.81;97.33;95714.97;6277268;22;20000;-94
2021/09/17 00:26:10;;;;;;;13.55;12.23;;;;;;;15.95;96.88;95726.84;6277478;22;20003;-95
2021/09/17 00:28:36;;;;;;;13.65;12.02;;;;;;;15.93;96.25;95710.19;6277241;22;20082;-94
2021/09/17 00:31:01;;;;;;;13.68;12.25;;;;;;;15.93;96.17;95699.25;6278145;22;20015;-94
2021/09/17 00:33:29;;;;;;;15.52;12.30;;;;;;;15.82;96.81;95686.38;6276906;22;20003;-94
2021/09/17 00:35:55;;;;;;;15.07;11.75;;;;;;;15.71;97.13;95683.69;6277207;22;20010;-94
2021/09/17 00:38:20;;;;;;;21.70;12.45;;;;;;;15.83;96.80;95698.81;6277198;22;20004;-94
2021/09/17 00:40:46;;;;;;;15.50;11.98;;;;;;;15.83;96.99;95695.34;6276880;22;20008;-93
2021/09/17 00:43:12;;;;;;;13.07;10.52;;;;;;;15.79;97.74;95686.66;6276876;22;20010;-94
2021/09/17 00:45:38;;;;;;;14.82;12.18;;;;;;;15.76;97.42;95687.66;6277280;22;20006;-93
2021/09/17 00:48:04;;;;;;;13.38;11.40;;;;;;;15.66;97.30;95676.28;6276941;22;20003;-94
2021/09/17 00:50:29;;;;;;;13.13;10.82;;;;;;;15.70;97.38;95682.94;6277018;22;20004;-93
2021/09/17 00:52:56;;;;;;;11.73;9.65;;;;;;;15.67;96.93;95670.28;6276698;22;20000;-95
2021/09/17 00:55:22;;;;;;;16.17;9.77;;;;;;;15.74;95.89;95655.31;6276870;22;20018;-93
2021/09/17 00:57:49;;;;;;;13.65;9.70;;;;;;;15.92;95.72;95676.56;6277194;22;20006;-94
2021/09/17 01:00:16;;;;;;;12.38;9.55;;;;;;;15.87;95.81;95671.13;6277230;22;20443;-93
2021/09/17 01:02:42;;;;;;;11.68;9.85;;;;;;;15.84;95.69;95675.66;6276831;22;20026;-94
2021/09/17 01:05:10;;;;;;;13.65;9.25;;;;;;;15.89;95.40;95665.91;6276565;22;20015;-93
2021/09/17 01:07:36;;;;;;;12.30;9.13;;;;;;;15.86;95.74;95653.22;6276774;22;20094;-94
2021/09/17 01:10:03;;;;;;;13.73;9.75;;;;;;;15.90;95.65;95661.91;6276392;22;20055;-95
2021/09/17 01:12:29;;;;;;;11.18;9.75;;;;;;;15.90;95.45;95662.66;6276475;22;20014;-94
2021/09/17 01:14:55;;;;;;;11.38;9.40;;;;;;;15.86;95.43;95650.50;6276716;22;20075;-93
2021/09/17 01:17:32;;;;;;;11.15;9.40;;;;;;;15.88;95.12;95646.00;6276895;22;20038;-93
2021/09/17 01:19:57;;;;;;;10.93;9.20;;;;;;;15.97;95.32;95662.09;6277647;22;20014;-93
2021/09/17 01:22:23;;;;;;;9.80;8.80;;;;;;;15.86;95.49;95637.53;6276554;22;20424;-94
2021/09/17 01:24:49;;;;;;;9.45;8.45;;;;;;;16.00;95.07;95659.63;6276708;22;20040;-93
2021/09/17 01:27:15;;;;;;;10.98;8.63;;;;;;;15.96;95.27;95648.94;6276418;22;20501;-95
2021/09/17 01:29:41;;;;;;;9.68;7.93;;;;;;;16.14;94.67;95658.47;6276911;22;20011;-93
2021/09/17 01:32:07;;;;;;;10.20;7.90;;;;;;;16.13;94.43;95640.56;6276758;22;20407;-93
2021/09/17 01:34:32;;;;;;;8.75;7.50;;;;;;;16.20;94.10;95631.81;6276311;22;20013;-94
2021/09/17 01:36:58;;;;;;;11.63;10.15;;;;;;;16.29;93.29;95641.69;6276578;22;20003;-93
2021/09/17 01:39:25;;;;;;;10.02;8.88;;;;;;;16.23;92.92;95619.81;6276247;22;20011;-93
2021/09/17 01:41:51;;;;;;;10.85;9.57;;;;;;;16.33;92.83;95639.41;6276426;22;20031;-93
2021/09/17 01:44:17;;;;;;;11.65;9.25;;;;;;;16.12;93.63;95620.66;6276269;22;20385;-94
2021/09/17 01:46:43;;;;;;;11.65;9.38;;;;;;;16.09;94.08;95618.97;6276600;22;20442;-94
2021/09/17 01:49:09;;;;;;;11.85;9.27;;;;;;;16.05;95.00;95631.44;6276651;22;19999;-94
2021/09/17 01:51:35;;;;;;;14.05;9.93;;;;;;;15.91;95.49;95623.06;6276414;22;20008;-93
2021/09/17 01:54:05;;;;;;;14.13;10.43;;;;;;;15.96;95.55;95625.03;6275927;22;20436;-93
2021/09/17 01:56:33;;;;;;;16.03;10.07;;;;;;;16.01;95.66;95634.44;6276213;22;20077;-93
2021/09/17 01:58:59;;;;;;;16.40;9.82;;;;;;;16.07;95.37;95639.88;6276295;22;20626;-93
2021/09/17 02:01:25;;;;;;;11.57;9.65;;;;;;;16.04;95.99;95621.75;6276642;22;20015;-94
2021/09/17 02:03:51;;;;;;;11.18;10.00;;;;;;;16.07;95.63;95624.19;6276555;22;20038;-94
2021/09/17 02:06:25;;;;;;;12.85;9.90;;;;;;;16.10;95.79;95622.44;6277558;22;20027;-93
2021/09/17 02:08:51;;;;;;;13.25;10.00;;;;;;;16.14;95.52;95612.69;6276356;22;20101;-94
2021/09/17 02:11:17;;;;;;;13.38;10.43;;;;;;;16.22;96.33;95621.81;6276341;22;20008;-94
2021/09/17 02:13:43;;;;;;;12.55;10.63;;;;;;;16.23;96.18;95625.28;6276127;22;20340;-94
2021/09/17 02:16:10;;;;;;;13.23;9.90;;;;;;;16.10;97.05;95606.00;6276454;22;20010;-94
2021/09/17 02:18:36;;;;;;;12.50;10.23;;;;;;;16.24;96.70;95624.78;6276584;22;20012;-94
2021/09/17 02:21:02;;;;;;;11.82;10.63;;;;;;;16.09;97.30;95608.00;6276369;22;20063;-94
2021/09/17 02:23:27;;;;;;;15.27;10.60;;;;;;;15.99;97.21;95606.84;6276315;22;20038;-95
2021/09/17 02:25:53;;;;;;;11.65;10.25;;;;;;;16.10;97.20;95614.97;6276345;22;20014;-94
2021/09/17 02:28:18;;;;;;;15.80;11.48;;;;;;;16.12;98.05;95620.66;6276152;22;20016;-94
2021/09/17 02:30:44;;;;;;;13.55;10.35;;;;;;;16.07;97.20;95623.44;6275571;22;20010;-93
2021/09/17 02:33:10;;;;;;;13.52;11.00;;;;;;;16.08;97.45;95600.28;6276110;22;20358;-95
2021/09/17 02:35:36;;;;;;;15.27;11.27;;;;;;;16.06;97.96;95605.53;6276889;22;20000;-94
2021/09/17 02:38:02;;;;;;;11.52;9.18;;;;;;;16.04;97.46;95589.63;6276271;22;20019;-94
2021/09/17 02:40:30;;;;;;;14.75;11.05;;;;;;;16.03;98.33;95593.59;6276105;22;20011;-94
2021/09/17 02:42:56;;;;;;;13.35;11.25;;;;;;;16.04;98.65;95597.84;6276097;22;20004;-94
2021/09/17 02:45:21;;;;;;;14.05;11.85;;;;;;;15.91;98.80;95586.75;6277960;22;20454;-95
2021/09/17 02:47:47;;;;;;;15.40;11.85;;;;;;;15.89;99.38;95589.25;6278616;22;19999;-94
2021/09/17 02:50:13;;;;;;;15.27;12.50;;;;;;;15.92;99.54;95593.69;6278028;22;20007;-93
2021/09/17 02:52:40;;;;;;;18.42;13.23;;;;;;;15.94;99.34;95585.72;6277827;22;20014;-94
2021/09/17 02:55:06;;;;;;;16.92;14.27;;;;;;;15.94;99.62;95585.72;6277853;22;20008;-94
2021/09/17 02:57:32;;;;;;;15.88;13.60;;;;;;;15.92;99.47;95574.53;6277869;22;20003;-94
2021/09/17 02:59:58;;;;;;;18.70;13.90;;;;;;;15.96;100.00;95577.72;6277767;22;20030;-93
2021/09/17 03:02:24;;;;;;;17.27;13.48;;;;;;;15.87;99.60;95569.84;6277883;22;20328;-94
2021/09/17 03:04:49;;;;;;;18.80;16.80;;;;;;;15.90;99.42;95566.84;6277792;22;19999;-93
2021/09/17 03:07:15;;;;;;;18.92;16.58;;;;;;;16.00;99.38;95580.94;6277786;22;20091;-95
2021/09/17 03:09:40;;;;;;;19.63;16.25;;;;;;;15.86;99.55;95555.41;6277651;22;20111;-94
2021/09/17 03:12:06;;;;;;;17.38;15.45;;;;;;;15.95;99.56;95554.34;6277835;22;19999;-94
2021/09/17 03:14:32;;;;;;;18.13;12.38;;;;;;;15.91;99.48;95543.66;6278412;22;20067;-94
2021/09/17 03:16:58;;;;;;;15.77;13.30;;;;;;;15.89;99.40;95559.13;6277828;22;20035;-93
2021/09/17 03:19:23;;;;;;;16.08;13.88;;;;;;;15.91;99.22;95553.88;6278351;22;20077;-94
2021/09/17 03:21:49;;;;;;;15.75;13.30;;;;;;;15.77;100.00;95546.81;6273881;22;20431;-95
2021/09/17 03:24:15;;;;;;;13.35;9.98;;;;;;;15.82;100.00;95535.03;6278218;22;20000;-94
2021/09/17 03:26:40;;;;;;;11.90;10.00;;;;;;;15.92;100.00;95539.69;6277942;22;20003;-94
2021/09/17 03:29:06;;;;;;;12.32;9.57;;;;;;;15.86;99.78;95533.50;6277736;22;20010;-93
2021/09/17 03:31:32;;;;;;;11.63;9.65;;;;;;;15.78;100.00;95521.66;6277448;22;20489;-93
2021/09/17 03:33:59;;;;;;;12.65;9.70;;;;;;;15.87;99.95;95535.03;6277510;22;20012;-93
2021/09/17 03:36:28;;;;;;;12.90;10.80;;;;;;;15.81;100.00;95528.09;6277720;22;20000;-93
2021/09/17 03:38:55;;;;;;;15.40;12.07;;;;;;;15.84;99.99;95533.28;6277289;22;20003;-94
2021/09/17 03:41:21;;;;;;;13.30;11.55;;;;;;;15.70;100.00;95512.50;6277463;22;20010;-93
2021/09/17 03:43:46;;;;;;;16.73;12.32;;;;;;;15.78;100.00;95518.91;6277351;22;20023;-94
2021/09/17 03:46:12;;;;;;;16.88;14.73;;;;;;;15.69;100.00;95506.28;6279429;22;20439;-94
2021/09/17 03:48:38;;;;;;;17.60;14.70;;;;;;;15.80;100.00;95519.13;6277454;22;20477;-93
2021/09/17 03:51:03;;;;;;;16.98;15.27;;;;;;;15.85;100.00;95534.03;6277294;22;20439;-94
2021/09/17 03:53:29;;;;;;;18.45;14.35;;;;;;;15.76;100.00;95509.72;6277042;22;20069;-94
2021/09/17 03:55:55;;;;;;;15.57;12.95;;;;;;;15.83;100.00;95518.13;6276559;22;20010;-93
2021/09/17 03:58:20;;;;;;;13.77;11.95;;;;;;;15.77;100.00;95513.97;6277245;22;20003;-93
2021/09/17 04:00:46;;;;;;;15.23;12.35;;;;;;;15.81;100.00;95512.41;6277132;22;20018;-94
2021/09/17 04:03:12;;;;;;;13.38;11.82;;;;;;;15.77;100.00;95501.03;6277616;22;20374;-95
2021/09/17 04:05:38;;;;;;;13.35;11.57;;;;;;;15.89;100.00;95518.81;6277428;22;20065;-94
2021/09/17 04:08:04;;;;;;;13.00;10.52;;;;;;;15.78;100.00;95512.72;6277037;22;20011;-95
2021/09/17 04:10:30;;;;;;;11.07;9.75;;;;;;;15.76;100.00;95501.50;6277231;22;20005;-94
2021/09/17 04:12:55;;;;;;;15.85;11.75;;;;;;;15.85;100.00;95518.34;6277142;22;20011;-95
2021/09/17 04:15:21;;;;;;;12.88;11.13;;;;;;;15.83;100.00;95520.88;6277367;22;20007;-96
2021/09/17 04:17:46;;;;;;;12.70;10.35;;;;;;;15.79;100.00;95509.44;6279103;22;20009;-95
2021/09/17 04:20:13;;;;;;;13.43;11.25;;;;;;;15.86;100.00;95519.81;6285164;22;20007;-95
2021/09/17 04:22:39;;;;;;;13.25;10.82;;;;;;;15.86;100.00;95519.09;6284420;22;20034;-95
2021/09/17 04:25:06;;;;;;;14.18;11.35;;;;;;;15.78;100.00;95504.50;6282043;22;20065;-95
2021/09/17 04:27:32;;;;;;;15.73;11.82;;;;;;;15.78;100.00;95501.75;6277326;22;20432;-95
2021/09/17 04:29:57;;;;;;;14.38;11.10;;;;;;;15.75;100.00;95505.50;6277512;22;19999;-96
2021/09/17 04:32:23;;;;;;;14.27;11.13;;;;;;;15.80;100.00;95504.72;6278375;22;20003;-95
2021/09/17 04:34:49;;;;;;;12.98;11.30;;;;;;;15.77;100.00;95497.53;6280666;22;20011;-95
2021/09/17 04:37:14;;;;;;;11.40;9.70;;;;;;;15.79;100.00;95497.75;6277823;22;20113;-95
2021/09/17 04:39:40;;;;;;;14.50;10.70;;;;;;;15.72;100.00;95501.81;6276982;22;20011;-95
2021/09/17 04:42:06;;;;;;;12.15;10.45;;;;;;;15.78;100.00;95507.97;6277098;22;20037;-95
2021/09/17 04:44:31;;;;;;;17.10;10.80;;;;;;;15.93;100.00;95518.53;6277270;22;20044;-95
2021/09/17 04:46:57;;;;;;;12.60;10.82;;;;;;;15.81;100.00;95500.72;6277155;22;19999;-95
2021/09/17 04:49:23;;;;;;;13.43;11.20;;;;;;;15.80;100.00;95499.97;6277156;22;20007;-94
2021/09/17 04:51:48;;;;;;;15.60;10.95;;;;;;;15.89;100.00;95518.06;6277027;22;20106;-95
2021/09/17 04:54:16;;;;;;;13.48;10.20;;;;;;;15.83;100.00;95504.44;6276983;22;20008;-95
2021/09/17 04:56:42;;;;;;;12.00;9.80;;;;;;;15.86;100.00;95508.88;6276846;22;20015;-95
2021/09/17 04:59:07;;;;;;;11.55;10.13;;;;;;;15.80;100.00;95499.97;6277022;22;20010;-94
2021/09/17 05:01:33;;;;;;;16.55;10.25;;;;;;;15.78;100.00;95483.34;6277110;22;20033;-94
2021/09/17 05:03:59;;;;;;;14.60;9.57;;;;;;;15.85;100.00;95501.19;6276829;22;19996;-95
2021/09/17 05:06:24;;;;;;;12.13;9.27;;;;;;;15.88;100.00;95498.16;6276452;22;20030;-95
2021/09/17 05:08:50;;;;;;;11.73;8.70;;;;;;;16.01;100.00;95518.69;6276474;22;20020;-95
2021/09/17 05:11:15;;;;;;;14.07;9.98;;;;;;;16.07;100.00;95520.13;6276928;22;20004;-95
2021/09/17 05:13:41;;;;;;;12.63;9.15;;;;;;;15.93;100.00;95510.31;6276689;22;20018;-94
2021/09/17 05:16:06;;;;;;;13.38;9.70;;;;;;;15.92;100.00;95509.56;6276732;22;20065;-92
2021/09/17 05:18:32;;;;;;;14.02;10.70;;;;;;;15.98;99.90;95517.75;6276480;22;20008;-94
2021/09/17 05:20:58;;;;;;;11.80;10.55;;;;;;;16.04;100.00;95523.91;6277014;22;20007;-95
2021/09/17 05:23:23;;;;;;;14.65;11.35;;;;;;;15.97;100.00;95508.75;6276993;22;20004;-96
2021/09/17 05:25:49;;;;;;;16.35;11.50;;;;;;;15.98;100.00;95509.53;6276497;22;19999;-95
2021/09/17 05:28:14;;;;;;;15.23;12.27;;;;;;;15.96;100.00;95512.03;6276981;22;20004;-94
2021/09/17 05:30:40;;;;;;;13.80;10.70;;;;;;;16.00;100.00;95520.69;6276530;22;20003;-94
2021/09/17 05:33:05;;;;;;;13.93;10.30;;;;;;;15.98;100.00;95501.31;6276498;22;20004;-94
2021/09/17 05:35:32;;;;;;;15.13;11.63;;;;;;;15.90;100.00;95497.66;6276683;22;20035;-94
2021/09/17 05:37:57;;;;;;;12.60;10.68;;;;;;;15.93;100.00;95507.59;6276480;22;20521;-94
2021/09/17 05:40:23;;;;;;;12.93;10.35;;;;;;;16.01;100.00;95515.97;6276477;22;20007;-94
2021/09/17 05:42:49;;;;;;;18.02;11.75;;;;;;;15.92;100.00;95506.09;6276405;22;20008;-93
2021/09/17 05:45:15;;;;;;;15.65;12.20;;;;;;;15.91;100.00;95499.13;6275657;22;20095;-93
2021/09/17 05:47:44;;;;;;;14.65;12.73;;;;;;;15.88;100.00;95495.44;6275958;22;20091;-95
2021/09/17 05:50:11;;;;;;;15.87;12.13;;;;;;;15.95;100.00;95510.53;6276907;22;20013;-95
2021/09/17 05:52:37;;;;;;;15.55;12.43;;;;;;;15.89;100.00;95491.44;6276440;22;20004;-95
2021/09/17 05:55:05;;;;;;;15.10;13.20;;;;;;;15.83;100.00;95490.75;6276176;22;20000;-95
2021/09/17 05:57:31;;;;;;;16.05;13.18;;;;;;;15.81;100.00;95485.03;6276256;22;20011;-94
2021/09/17 06:03:18;;;;;;;13.88;11.60;;;;;;;15.94;100.00;95507.06;6277839;22;20053;-94
2021/09/17 06:05:43;;;;;;;16.05;12.43;;;;;;;15.92;100.00;95495.13;6276560;22;20007;-94
2021/09/17 06:08:09;;;;;;;17.02;13.35;;;;;;;15.83;100.00;95487.28;6276075;22;20015;-95
2021/09/17 06:10:34;;;;;;;15.40;11.52;;;;;;;15.84;100.00;95486.00;6276225;22;20033;-95
2021/09/17 06:13:00;;;;;;;14.93;11.70;;;;;;;15.89;100.00;95496.91;6276471;22;20003;-96
2021/09/17 06:15:25;;;;;;;13.23;11.30;;;;;;;15.93;100.00;95493.91;6276681;22;20348;-95
2021/09/17 06:17:51;;;;;;;16.42;11.00;;;;;;;15.95;100.00;95496.84;6276456;22;20026;-94
2021/09/17 06:20:16;;;;;;;17.70;12.43;;;;;;;15.90;100.00;95481.97;6277899;22;20004;-96
2021/09/17 06:22:45;;;;;;;16.63;13.00;;;;;;;16.05;100.00;95508.22;6278283;22;20007;-95
2021/09/17 06:25:12;;;;;;;15.60;12.23;;;;;;;15.87;100.00;95477.53;6278488;22;19999;-95
2021/09/17 06:27:37;;;;;;;14.68;12.52;;;;;;;15.98;100.00;95493.84;6278532;22;20011;-95
2021/09/17 06:30:05;;;;;;;15.15;12.88;;;;;;;16.03;100.00;95486.78;6278495;22;20015;-96
2021/09/17 06:32:30;;;;;;;15.13;11.75;;;;;;;16.07;100.00;95498.22;6278130;22;20003;-95
2021/09/17 06:34:58;;;;;;;13.60;10.75;;;;;;;16.06;100.00;95502.22;6278165;22;20003;-95
2021/09/17 06:37:23;;;;;;;13.00;10.73;;;;;;;16.11;100.00;95498.66;6278213;22;19999;-96
2021/09/17 06:39:49;;;;;;;13.23;10.20;;;;;;;16.04;100.00;95499.25;6278235;22;20072;-95
2021/09/17 06:42:16;;;;;;;13.20;10.52;;;;;;;16.15;100.00;95501.13;6278335;22;20047;-95
2021/09/17 06:44:41;;;;;;;12.18;10.48;;;;;;;16.09;100.00;95500.47;6278488;22;20008;-95
2021/09/17 06:47:07;;;;;;;12.13;10.60;;;;;;;16.11;100.00;95497.94;6279212;22;20057;-93
2021/09/17 06:49:32;;;;;;;12.20;10.60;;;;;;;16.05;100.00;95489.03;6277903;22;20030;-95
2021/09/17 06:59:20;;;;;;;9.48;8.05;;;;;;;16.17;100.00;95515.78;6278697;22;20514;-94
2021/09/17 07:01:46;;;;;;;8.18;5.60;;;;;;;16.06;100.00;95509.69;6277984;22;20086;-95
2021/09/17 07:04:12;;;;;;;4.93;2.65;;;;;;;16.05;98.82;95510.94;6277989;22;20031;-95
2021/09/17 07:06:37;;;;;;;3.95;2.50;;;;;;;15.99;100.00;95500.06;6277910;22;20010;-95
2021/09/17 07:09:04;;;;;;;5.13;2.70;;;;;;;16.18;100.00;95527.47;6277667;22;20043;-94
2021/09/17 07:11:30;;;;;;;4.25;2.75;;;;;;;16.14;100.00;95524.28;6277760;22;20343;-95
2021/09/17 07:13:55;;;;;;;4.65;2.40;;;;;;;16.09;99.36;95516.88;6277892;22;20018;-96
2021/09/17 07:16:21;;;;;;;2.78;1.98;;;;;;;16.11;99.38;95520.59;6277921;22;20034;-95
2021/09/17 07:18:47;;;;;;;1.58;1.20;;;;;;;16.08;98.16;95512.63;6277975;22;20061;-95
2021/09/17 07:21:12;;;;;;;5.10;1.38;;;;;;;16.12;98.97;95521.31;6277673;22;20039;-95
2021/09/17 07:23:38;;;;;;;2.60;0.90;;;;;;;15.97;98.16;95518.97;6277590;22;20011;-95
2021/09/17 07:26:04;;;;;;;2.15;0.90;;;;;;;15.93;97.63;95508.31;6277723;22;20004;-95
2021/09/17 07:28:33;;;;;;;1.70;0.50;;;;;;;15.94;97.93;95520.75;6277746;22;20007;-95
2021/09/17 07:30:59;;;;;;;2.95;0.50;;;;;;;15.94;95.79;95528.22;6277724;22;20007;-94
2021/09/17 07:33:25;;;;;;;1.25;0.65;;;;;;;15.93;97.43;95516.53;6277557;22;20015;-95
2021/09/17 07:35:51;;;;;;;1.98;0.65;;;;;;;15.87;98.36;95510.38;6277465;22;20008;-96
2021/09/17 07:38:17;;;;;;;1.23;0.50;;;;;;;15.94;96.49;95514.53;6277571;22;20008;-95
2021/09/17 07:40:42;;;;;;;1.73;0.40;;;;;;;16.01;97.86;95535.88;6278515;22;20008;-94
2021/09/17 07:43:08;;;;;;;1.10;0.50;;;;;;;15.85;96.35;95526.56;6277610;22;20086;-94
2021/09/17 07:45:33;;;;;;;4.53;0.50;;;;;;;15.72;94.13;95534.66;6277598;22;20004;-95
2021/09/17 07:48:00;;;;;;;3.70;0.40;;;;;;;15.58;94.56;95524.78;6277374;22;20382;-95
2021/09/17 07:50:27;;;;;;;0.85;0.40;;;;;;;15.71;95.91;95528.44;6277407;22;20004;-94
2021/09/17 07:52:53;;;;;;;1.25;0.55;;;;;;;15.54;94.34;95527.06;6277457;22;20432;-95
2021/09/17 07:55:19;;;;;;;5.82;0.50;;;;;;;15.54;95.27;95527.78;6277453;22;20010;-95
2021/09/17 07:57:45;;;;;;;1.38;0.50;;;;;;;15.58;96.15;95530.25;6277454;22;20003;-95
2021/09/17 08:00:13;;;;;;;3.05;0.80;;;;;;;15.72;96.34;95542.88;6277484;22;20003;-95
2021/09/17 08:02:40;;;;;;;3.10;0.60;;;;;;;15.49;95.65;95539.53;6277183;22;20053;-95
2021/09/17 08:05:06;;;;;;;2.33;0.40;;;;;;;15.29;95.11;95539.94;6277403;22;20094;-95
2021/09/17 08:07:32;;;;;;;2.20;0.50;;;;;;;15.47;95.83;95533.84;6277167;22;20094;-95
2021/09/17 08:09:57;;;;;;;2.15;0.60;;;;;;;15.49;96.43;95536.03;6277159;22;20332;-95
2021/09/17 08:12:23;;;;;;;0.82;0.45;;;;;;;15.64;96.73;95545.41;6277138;22;20061;-95
2021/09/17 08:14:48;;;;;;;1.17;0.55;;;;;;;15.67;97.12;95555.34;6277065;22;20003;-95
2021/09/17 08:17:14;;;;;;;1.33;0.70;;;;;;;15.61;95.13;95548.41;6277375;22;20317;-95
2021/09/17 08:19:39;;;;;;;0.52;0.20;;;;;;;15.45;91.36;95552.75;6277230;22;20028;-95
2021/09/17 08:22:05;;;;;;;0.82;0.40;;;;;;;15.45;93.59;95552.75;6277338;22;20004;-95
2021/09/17 08:24:31;;;;;;;2.25;0.40;;;;;;;15.17;92.17;95555.66;6277176;22;20008;-95
2021/09/17 08:26:57;;;;;;;0.75;0.38;;;;;;;15.34;93.84;95561.03;6277235;22;20026;-95
2021/09/17 08:29:23;;;;;;;0.77;0.47;;;;;;;15.31;91.71;95556.59;6277035;22;20006;-95
2021/09/17 08:31:49;;;;;;;0.90;0.40;;;;;;;15.29;93.35;95575.50;6277497;22;20007;-95
2021/09/17 08:34:15;;;;;;;0.80;0.50;;;;;;;15.28;93.02;95574.00;6277123;22;20007;-95
2021/09/17 08:36:41;;;;;;;2.50;0.40;;;;;;;15.38;93.33;95589.59;6277134;22;20079;-95
2021/09/17 08:39:08;;;;;;;0.43;0.40;;;;;;;15.37;93.43;95576.44;6277131;22;20038;-96
2021/09/17 08:41:34;;;;;;;0.68;0.40;;;;;;;15.21;92.86;95580.75;6276721;22;20004;-95
2021/09/17 08:44:01;;;;;;;0.85;0.60;;;;;;;15.15;91.40;95580.78;6277061;22;19995;-95
2021/09/17 08:46:26;;;;;;;0.90;0.65;;;;;;;15.22;93.91;95582.22;6277112;22;20011;-95
2021/09/17 08:48:52;;;;;;;0.63;0.50;;;;;;;15.29;94.46;95578.25;6277263;22;20004;-96
2021/09/17 08:51:21;;;;;;;2.35;0.47;;;;;;;15.19;90.59;95578.53;6277180;22;20116;-95
2021/09/17 08:53:47;;;;;;;0.68;0.40;;;;;;;15.26;91.22;95582.72;6276789;22;20067;-95
2021/09/17 08:56:18;;;;;;;0.50;0.40;;;;;;;15.29;91.49;95594.66;6277337;22;20003;-96
2021/09/17 08:58:45;;;;;;;0.55;0.40;;;;;;;15.24;90.44;95595.44;6277002;22;19999;-96
2021/09/17 09:01:31;;;;;;;0.57;0.40;;;;;;;15.12;89.01;95572.84;6277328;22;20013;-96
2021/09/17 09:04:08;;;;;;;1.13;0.50;;;;;;;15.30;90.05;95591.41;6277417;22;20003;-95
2021/09/17 09:06:45;;;;;;;0.40;0.40;;;;;;;14.94;91.70;95560.53;6277464;22;20000;-96
2021/09/17 09:09:20;;;;;;;1.88;0.40;;;;;;;15.16;90.93;95587.00;6276716;22;20020;-96
2021/09/17 09:11:47;;;;;;;1.85;0.47;;;;;;;14.92;88.82;95569.25;6276954;22;20004;-96
2021/09/17 09:14:14;;;;;;;0.73;0.65;;;;;;;14.99;90.52;95567.22;6276828;22;20007;-96
2021/09/17 09:16:45;;;;;;;4.38;0.80;;;;;;;14.79;88.27;95549.91;6277810;22;19999;-96
2021/09/17 09:19:23;;;;;;;1.52;0.60;;;;;;;15.24;90.81;95587.97;6278243;22;20015;-96
2021/09/17 09:21:51;;;;;;;0.93;0.65;;;;;;;15.09;90.20;95571.13;6277703;22;20014;-96
2021/09/17 09:24:19;;;;;;;0.50;0.50;;;;;;;15.27;89.74;95594.41;6276670;22;20332;-95
2021/09/17 09:26:46;;;;;;;1.42;0.75;;;;;;;15.30;90.81;95598.88;6276841;22;20004;-96
2021/09/17 09:29:30;;;;;;;1.08;0.75;;;;;;;15.28;88.00;95601.34;6276859;22;20034;-96
2021/09/17 09:31:56;;;;;;;0.95;0.55;;;;;;;15.29;88.92;95603.59;6276757;22;20011;-96
2021/09/17 09:34:42;;;;;;;0.90;0.70;;;;;;;15.42;90.75;95594.81;6276715;22;20106;-95
2021/09/17 09:37:08;;;;;;;0.60;0.50;;;;;;;15.20;90.38;95574.53;6276635;22;20004;-95
2021/09/17 09:39:57;;;;;;;1.73;0.65;;;;;;;15.47;91.69;95588.56;6276489;22;20011;-96
2021/09/17 09:42:34;;;;;;;1.67;0.70;;;;;;;15.50;88.24;95589.50;6276671;22;20004;-96
2021/09/17 09:45:13;;;;;;;0.88;0.80;;;;;;;15.55;87.41;95589.47;6276578;22;20065;-96
2021/09/17 09:47:42;;;;;;;0.95;0.70;;;;;;;15.35;87.72;95582.41;6276677;22;20005;-96
2021/09/17 09:50:19;;;;;;;1.00;0.82;;;;;;;15.42;90.76;95578.38;6276617;22;20079;-93
2021/09/17 09:52:44;;;;;;;1.05;0.80;;;;;;;15.31;86.56;95592.88;6276749;22;20348;-96
2021/09/17 09:55:11;;;;;;;2.55;0.80;;;;;;;15.28;86.65;95580.22;6278450;22;20003;-95
2021/09/17 09:57:37;;;;;;;1.50;0.95;;;;;;;15.43;88.44;95591.56;6277017;22;20007;-96
2021/09/17 10:00:11;;;;;;;2.08;1.10;;;;;;;15.50;87.96;95595.75;6278788;22;19999;-95
2021/09/17 10:02:37;;;;;;;1.17;0.85;;;;;;;15.26;85.36;95576.50;6278710;22;20026;-96
2021/09/17 10:05:06;;;;;;;0.88;0.70;;;;;;;15.44;86.77;95581.34;6280321;22;20011;-95
2021/09/17 10:07:32;;;;;;;0.80;0.60;;;;;;;15.34;84.11;95574.69;6278551;22;20458;-96
2021/09/17 10:09:58;;;;;;;0.70;0.60;;;;;;;15.46;85.74;95604.22;6278340;22;20016;-95
2021/09/17 10:12:24;;;;;;;1.23;0.82;;;;;;;15.37;86.05;95601.06;6277832;22;20010;-95
2021/09/17 10:14:52;;;;;;;1.92;1.10;;;;;;;15.52;86.49;95595.97;6277358;22;20008;-96
2021/09/17 10:17:25;;;;;;;1.38;0.80;;;;;;;15.41;85.30;95582.38;6278257;22;20073;-95
2021/09/17 10:19:52;;;;;;;2.13;0.80;;;;;;;15.58;85.04;95593.19;6278231;22;20446;-95
2021/09/17 10:22:33;;;;;;;1.55;1.00;;;;;;;15.51;86.95;95580.06;6278286;22;20003;-93
2021/09/17 10:25:15;;;;;;;0.85;0.77;;;;;;;15.51;86.95;95580.06;6277912;22;20415;-95
2021/09/17 10:28:14;;;;;;;1.65;1.00;;;;;;;15.58;84.97;95601.41;6278176;22;19999;-95
2021/09/17 10:30:41;;;;;;;0.98;0.73;;;;;;;15.48;100.00;68426.72;6278134;22;20083;-94
2021/09/17 10:33:24;;;;;;;3.65;1.05;;;;;;;15.52;86.29;95609.66;6278280;22;20007;-96
2021/09/17 10:35:50;;;;;;;3.42;1.30;;;;;;;15.42;86.75;95606.47;6279036;22;20008;-96
2021/09/17 10:38:21;;;;;;;0.95;0.70;;;;;;;15.47;100.00;95588.56;6278609;22;20007;-96
2021/09/17 10:41:01;;;;;;;1.38;1.20;;;;;;;15.43;85.27;95601.75;6278155;22;19999;-96
2021/09/17 10:43:40;;;;;;;1.75;0.98;;;;;;;15.43;85.27;95601.75;6278115;22;20447;-95
2021/09/17 10:46:08;;;;;;;0.90;0.63;;;;;;;15.39;84.45;95617.69;6278132;22;20003;-96
2021/09/17 10:48:46;;;;;;;1.80;0.80;;;;;;;15.39;84.45;95617.69;6278111;22;20086;-95
2021/09/17 10:51:30;;;;;;;1.35;0.70;;;;;;;15.19;100.00;68426.72;6278495;22;20327;-95
2021/09/17 10:53:59;;;;;;;0.65;0.63;;;;;;;15.32;83.37;95620.97;6278050;22;20006;-95
2021/09/17 10:56:26;;;;;;;0.83;0.83;;;;;;;15.32;83.37;95620.97;6277957;22;20003;-95
2021/09/17 10:59:25;;;;;;;4.68;1.00;;;;;;;15.05;82.17;95606.19;6277610;22;20090;-93
2021/09/17 11:02:01;;;;;;;1.98;0.90;;;;;;;15.05;82.17;95606.19;6277286;22;20031;-93
2021/09/17 11:04:32;;;;;;;1.63;0.70;;;;;;;15.05;82.17;95606.19;6277047;22;20000;-92
2021/09/17 11:07:16;;;;;;;;;;;;;;;15.05;82.17;95606.19;6277951;22;20123;-94
2021/09/17 11:09:50;;;;;;;3.15;0.90;;;;;;;14.97;82.05;95622.41;6277079;22;19942;-93
2021/09/17 11:12:28;;;;;;;1.33;0.90;;;;;;;14.97;82.05;95622.41;6276963;22;20046;-94
2021/09/17 11:15:15;;;;;;;1.98;0.95;;;;;;;14.97;82.05;95622.41;6277205;22;20003;-94
2021/09/17 11:17:53;;;;;;;2.45;0.70;;;;;;;14.99;100.00;68426.72;6269283;22;20095;-88
2021/09/17 11:20:21;;;;;;;0.90;0.77;;;;;;;15.10;84.54;95636.25;6276617;22;20006;-89
2021/09/17 11:23:07;;;;;;;1.27;0.77;;;;;;;15.19;82.25;95646.91;6276571;22;20049;-89
2021/09/17 11:25:42;;;;;;;1.17;0.70;;;;;;;15.00;79.01;95637.78;6276491;22;20014;-89
2021/09/17 11:28:27;;;;;;;1.33;0.68;;;;;;;14.90;78.82;95639.31;6276120;22;20444;-89
2021/09/17 11:31:14;;;;;;;1.45;0.88;;;;;;;14.88;79.10;95628.16;6273316;22;20007;-90
2021/09/17 11:33:40;;;;;;;2.08;0.80;;;;;;;14.88;79.10;95628.16;6275093;22;20011;-90
2021/09/17 11:36:06;;;;;;;1.60;0.75;;;;;;;14.88;79.10;95628.16;6276462;22;20003;-91